Time;durP1;ratioP1;P1;durP2;ratioP2;P2;SDS_P1;SDS_P2;PMS_P1;PMS_P2;Temp;Humidity;BMP_temperature;BMP_pressure;BME280_temperature;BME280_humidity;BME280_pressure;Samples;Min_cycle;Max_cycle;Signal;HPM_P1;HPM_P2
2022/10/20 00:01:01;;;;;;;;;12.25;10.25;;;;;17.71;55.76;99471.56;4969893;28;102166;-42
2022/10/20 00:03:28;;;;;;;;;15.25;14.50;;;;;17.69;55.25;99460.03;4979850;28;102595;-42
2022/10/20 00:05:57;;;;;;;;;11.50;11.50;;;;;17.70;55.53;99461.69;4985771;27;103362;-42
2022/10/20 00:08:24;;;;;;;;;12.50;8.75;;;;;17.71;55.71;99460.63;4959390;28;105512;-42
2022/10/20 00:10:53;;;;;;;;;14.75;14.00;;;;;17.70;55.59;99457.06;4979391;28;102588;-42
2022/10/20 00:13:20;;;;;;;;;16.25;14.50;;;;;17.70;55.02;99454.31;4967387;28;103875;-42
2022/10/20 00:15:50;;;;;;;;;15.00;14.00;;;;;17.70;55.07;99459.78;4974441;28;102616;-42
2022/10/20 00:18:17;;;;;;;;;12.50;12.50;;;;;17.70;55.65;99458.94;4963984;28;105065;-42
2022/10/20 00:20:44;;;;;;;;;17.50;14.25;;;;;17.69;55.63;99462.75;4966725;28;102442;-42
2022/10/20 00:23:11;;;;;;;;;13.25;12.75;;;;;17.68;55.37;99459.19;4970919;28;102600;-42
2022/10/20 00:25:38;;;;;;;;;13.50;12.25;;;;;17.67;54.96;99460.25;4974476;28;102562;-42
2022/10/20 00:28:05;;;;;;;;;13.50;13.50;;;;;17.67;55.05;99459.41;4956998;28;104076;-42
2022/10/20 00:30:33;;;;;;;;;15.75;15.50;;;;;17.65;55.62;99451.41;4978321;28;102892;-42
2022/10/20 00:33:01;;;;;;;;;12.00;11.00;;;;;17.65;55.36;99459.63;4984911;28;102386;-42
2022/10/20 00:35:29;;;;;;;;;16.25;15.00;;;;;17.63;55.67;99456.28;4970938;28;103026;-42
2022/10/20 00:37:56;;;;;;;;;13.00;13.00;;;;;17.63;55.14;99459.03;4982974;28;104358;-42
2022/10/20 00:40:24;;;;;;;;;17.00;15.75;;;;;17.61;55.41;99452.94;4977395;27;102359;-42
2022/10/20 00:42:51;;;;;;;;;11.75;11.75;;;;;17.61;55.83;99444.72;4967403;28;104022;-41
2022/10/20 00:45:19;;;;;;;;;11.75;11.00;;;;;17.60;55.80;99447.72;4983857;27;102604;-42
2022/10/20 00:47:51;;;;;;;;;15.00;13.00;;;;;17.59;55.01;99446.03;4985821;28;104064;-42
2022/10/20 00:50:23;;;;;;;;;13.75;12.50;;;;;17.59;56.01;99446.88;4974049;28;102204;-41
2022/10/20 00:52:51;;;;;;;;;15.50;14.00;;;;;17.60;55.59;99453.19;4968735;28;102484;-41
2022/10/20 00:55:24;;;;;;;;;12.75;12.00;;;;;17.60;54.86;99448.56;4992348;28;102383;-42
2022/10/20 00:57:51;;;;;;;;;13.00;12.25;;;;;17.61;55.38;99444.72;4979068;28;109466;-41
2022/10/20 01:00:18;;;;;;;;;14.50;12.50;;;;;17.59;55.76;99446.88;4990699;27;102149;-42
2022/10/20 01:02:45;;;;;;;;;14.25;12.75;;;;;17.58;55.77;99436.97;4981552;28;102407;-41
2022/10/20 01:05:12;;;;;;;;;14.00;12.00;;;;;17.59;55.24;99446.03;4976792;28;102506;-41
2022/10/20 01:07:46;;;;;;;;;12.75;12.75;;;;;17.58;55.48;99442.44;4966727;28;105062;-41
2022/10/20 01:10:33;;;;;;;;;13.50;12.00;;;;;17.56;54.99;99447.25;4973468;28;103722;-41
2022/10/20 01:13:40;;;;;;;;;12.75;12.00;;;;;17.55;55.05;99448.34;4967749;28;102618;-42
2022/10/20 01:16:42;;;;;;;;;13.00;11.00;;;;;17.54;55.39;99449.41;4966640;28;102473;-42
2022/10/20 01:19:44;;;;;;;;;12.00;11.00;;;;;17.53;55.27;99455.94;4967576;28;108802;-41
2022/10/20 01:22:49;;;;;;;;;13.00;13.00;;;;;17.51;55.32;99449.88;4967630;28;102653;-42
2022/10/20 01:25:56;;;;;;;;;13.75;12.75;;;;;17.50;55.26;99448.19;4970826;28;102953;-41
2022/10/20 01:28:45;;;;;;;;;12.75;11.50;;;;;17.49;55.55;99451.97;4969335;28;102718;-42
2022/10/20 01:31:38;;;;;;;;;14.00;11.25;;;;;17.48;55.55;99454.94;4969095;28;108816;-41
2022/10/20 01:34:09;;;;;;;;;14.25;13.00;;;;;17.49;54.98;99460.19;4969476;28;102522;-41
2022/10/20 01:36:59;;;;;;;;;14.50;12.00;;;;;17.48;55.38;99458.50;4967415;28;102417;-41
2022/10/20 01:39:29;;;;;;;;;12.25;11.25;;;;;17.48;55.42;99450.28;4977568;28;102583;-42
2022/10/20 01:41:59;;;;;;;;;13.00;11.00;;;;;17.49;55.33;99449.25;4979971;28;104113;-42
2022/10/20 01:44:27;;;;;;;;;12.75;12.00;;;;;17.48;55.13;99449.44;4988792;28;102743;-42
2022/10/20 01:46:54;;;;;;;;;12.00;10.00;;;;;17.47;55.74;99450.53;4958375;28;102469;-41
2022/10/20 01:49:20;;;;;;;;;13.75;12.50;;;;;17.46;55.27;99446.97;4982993;28;103048;-42
2022/10/20 01:51:47;;;;;;;;;14.00;13.00;;;;;17.45;55.15;99439.81;4959941;28;104177;-41
2022/10/20 01:54:22;;;;;;;;;15.75;13.25;;;;;17.45;54.88;99442.56;4970085;28;102161;-41
2022/10/20 01:57:26;;;;;;;;;10.00;10.00;;;;;17.43;55.30;99447.41;4976485;27;102807;-42
2022/10/20 02:00:10;;;;;;;;;12.25;10.75;;;;;17.42;55.54;99446.56;4976551;28;103207;-42
2022/10/20 02:02:41;;;;;;;;;12.00;11.00;;;;;17.40;55.36;99448.69;4968717;28;108976;-41
2022/10/20 02:05:40;;;;;;;;;14.00;13.00;;;;;17.40;55.33;99456.91;4972241;28;102266;-41
2022/10/20 02:08:17;;;;;;;;;11.67;11.00;;;;;17.38;55.09;99450.00;4984384;28;102363;-41
2022/10/20 02:10:51;;;;;;;;;11.33;11.00;;;;;17.39;55.33;99448.91;4982903;28;110946;-41
2022/10/20 02:13:18;;;;;;;;;11.00;11.00;;;;;17.36;54.94;99450.22;4953617;28;103914;-41
2022/10/20 02:15:50;;;;;;;;;9.67;9.67;;;;;17.36;55.40;99444.75;4957111;27;102624;-41
2022/10/20 02:18:19;;;;;;;;;12.00;10.75;;;;;17.37;55.55;99442.84;4945536;28;102152;-41
2022/10/20 02:20:49;;;;;;;;;12.75;11.00;;;;;17.37;54.71;99442.84;4968998;28;102283;-41
2022/10/20 02:23:16;;;;;;;;;8.50;8.25;;;;;17.37;55.49;99451.03;4983200;28;104194;-41
2022/10/20 02:25:43;;;;;;;;;11.75;11.50;;;;;17.37;55.41;99449.16;4976323;28;102442;-41
2022/10/20 02:28:11;;;;;;;;;12.25;11.00;;;;;17.38;55.46;99444.53;4979965;28;102760;-41
2022/10/20 02:30:38;;;;;;;;;12.00;10.33;;;;;17.36;55.32;99442.00;4984927;28;102298;-41
2022/10/20 02:33:05;;;;;;;;;10.75;10.25;;;;;17.36;54.82;99452.09;4970151;28;103924;-41
2022/10/20 02:35:32;;;;;;;;;12.00;8.75;;;;;17.35;54.77;99450.41;4982740;28;102126;-41
2022/10/20 02:38:01;;;;;;;;;13.00;12.00;;;;;17.34;54.68;99451.47;4976599;28;102199;-42
2022/10/20 02:40:28;;;;;;;;;11.50;11.00;;;;;17.33;54.70;99447.09;4967713;28;102662;-41
2022/10/20 02:42:55;;;;;;;;;14.75;12.25;;;;;17.30;54.66;99445.63;4976641;28;103767;-41
2022/10/20 02:45:22;;;;;;;;;11.50;10.50;;;;;17.30;55.07;99448.34;4970804;28;103223;-42
2022/10/20 02:47:49;;;;;;;;;13.00;13.00;;;;;17.31;54.86;99454.66;4978790;28;102298;-41
2022/10/20 02:50:16;;;;;;;;;9.33;9.33;;;;;17.30;54.51;99455.72;4975141;28;102514;-41
2022/10/20 02:52:43;;;;;;;;;12.25;11.00;;;;;17.30;55.37;99458.44;4973567;28;104076;-41
2022/10/20 02:55:10;;;;;;;;;12.00;10.00;;;;;17.28;55.44;99455.13;4984115;28;102453;-41
2022/10/20 02:57:37;;;;;;;;;13.50;11.75;;;;;17.27;54.80;99461.63;4963302;28;102526;-41
2022/10/20 03:00:05;;;;;;;;;14.50;10.25;;;;;17.27;55.60;99464.38;4965828;28;104279;-41
2022/10/20 03:02:32;;;;;;;;;12.50;11.75;;;;;17.28;54.92;99466.06;4974896;27;104053;-41
2022/10/20 03:04:59;;;;;;;;;11.75;9.75;;;;;17.27;55.39;99458.91;4983808;28;102422;-41
2022/10/20 03:07:26;;;;;;;;;12.50;11.75;;;;;17.27;54.81;99459.75;4974052;28;103165;-42
2022/10/20 03:09:53;;;;;;;;;11.00;11.00;;;;;17.28;54.20;99466.06;4971503;28;102397;-41
2022/10/20 03:12:23;;;;;;;;;12.00;11.00;;;;;17.27;55.13;99480.78;4971335;27;108918;-41
2022/10/20 03:14:55;;;;;;;;;9.75;9.50;;;;;17.27;55.31;99486.25;4983431;28;102345;-42
2022/10/20 03:17:22;;;;;;;;;10.75;10.25;;;;;17.27;55.31;99494.44;4972002;28;103882;-41
2022/10/20 03:19:49;;;;;;;;;11.25;10.50;;;;;17.26;54.48;99488.13;4966054;28;102596;-41
2022/10/20 03:22:16;;;;;;;;;13.50;12.25;;;;;17.26;54.58;99490.03;4992566;27;104058;-41
2022/10/20 03:24:43;;;;;;;;;11.25;10.75;;;;;17.25;54.11;99488.34;4972773;28;102509;-42
2022/10/20 03:27:10;;;;;;;;;9.75;9.75;;;;;17.25;55.07;99491.06;4963874;28;102315;-41
2022/10/20 03:29:37;;;;;;;;;11.25;11.00;;;;;17.23;54.80;99490.47;4978886;28;102311;-41
2022/10/20 03:32:04;;;;;;;;;9.67;9.00;;;;;17.22;54.83;99495.09;4977478;28;104162;-41
2022/10/20 03:34:31;;;;;;;;;12.75;12.75;;;;;17.21;55.11;99487.13;4978962;28;102266;-42
2022/10/20 03:36:58;;;;;;;;;10.50;10.00;;;;;17.20;54.62;99491.75;4974108;28;103030;-42
2022/10/20 03:39:25;;;;;;;;;11.50;9.75;;;;;17.20;54.70;99486.28;4963084;28;102714;-42
2022/10/20 03:41:53;;;;;;;;;12.75;10.50;;;;;17.19;55.59;99490.09;4972288;28;104060;-41
2022/10/20 03:44:20;;;;;;;;;10.33;9.00;;;;;17.19;54.95;99489.25;4972866;28;102403;-42
2022/10/20 03:46:47;;;;;;;;;10.67;10.00;;;;;17.18;54.51;99485.69;4965447;28;102314;-41
2022/10/20 03:49:14;;;;;;;;;12.00;12.00;;;;;17.19;55.20;99481.06;4971109;28;103721;-41
2022/10/20 03:51:41;;;;;;;;;11.75;10.00;;;;;17.20;55.43;99485.47;4970434;28;103990;-41
2022/10/20 03:54:08;;;;;;;;;12.75;11.00;;;;;17.19;54.80;99479.16;4961446;28;102666;-41
2022/10/20 03:56:34;;;;;;;;;9.50;8.50;;;;;17.18;54.56;99487.56;4971157;28;102199;-42
2022/10/20 03:59:01;;;;;;;;;11.00;10.50;;;;;17.19;55.23;99483.78;4969684;28;102125;-41
2022/10/20 04:01:30;;;;;;;;;12.50;12.00;;;;;17.17;54.71;99483.16;4982831;28;105453;-41
2022/10/20 04:03:57;;;;;;;;;9.75;9.75;;;;;17.16;54.54;99478.75;4973193;28;102260;-41
2022/10/20 04:06:24;;;;;;;;;11.67;10.00;;;;;17.15;54.73;99482.56;4989730;28;102505;-42
2022/10/20 04:08:51;;;;;;;;;10.75;10.50;;;;;17.15;54.54;99479.84;4969639;28;102832;-41
2022/10/20 04:11:18;;;;;;;;;10.33;9.67;;;;;17.13;54.87;99487.41;4981911;27;103943;-41
2022/10/20 04:13:45;;;;;;;;;12.00;10.50;;;;;17.12;54.37;99482.97;4988540;28;102300;-41
2022/10/20 04:16:12;;;;;;;;;11.00;10.00;;;;;17.11;54.88;99475.88;4987247;27;102905;-41
2022/10/20 04:18:39;;;;;;;;;12.00;10.50;;;;;17.10;54.62;99471.47;4956949;28;102691;-41
2022/10/20 04:21:06;;;;;;;;;12.75;11.75;;;;;17.09;54.74;99473.34;4975999;28;104101;-41
2022/10/20 04:23:33;;;;;;;;;13.00;11.25;;;;;17.08;54.85;99479.88;4967709;28;102351;-41
2022/10/20 04:26:07;;;;;;;;;12.25;10.00;;;;;17.08;55.04;99476.28;4977025;27;102627;-41
2022/10/20 04:28:34;;;;;;;;;12.25;11.50;;;;;17.07;55.33;99466.41;4963141;28;103689;-41
2022/10/20 04:31:00;;;;;;;;;12.75;11.75;;;;;17.07;54.33;99469.16;4979754;28;104293;-41
2022/10/20 04:33:27;;;;;;;;;11.50;9.25;;;;;17.07;54.63;99466.41;4964063;28;102130;-42
2022/10/20 04:36:02;;;;;;;;;9.75;9.75;;;;;17.06;53.96;99465.59;4972809;28;102557;-41
2022/10/20 04:38:30;;;;;;;;;8.00;7.50;;;;;17.07;54.21;99469.16;4968546;28;102856;-41
2022/10/20 04:40:57;;;;;;;;;12.00;10.75;;;;;17.06;54.77;99464.75;4984310;27;104088;-41
2022/10/20 04:43:30;;;;;;;;;13.75;11.75;;;;;17.05;54.00;99466.66;4979814;28;102560;-41
2022/10/20 04:46:01;;;;;;;;;12.50;9.75;;;;;17.05;54.77;99474.00;4993046;27;103320;-41
2022/10/20 04:48:33;;;;;;;;;10.50;10.00;;;;;17.03;54.26;99470.66;4992525;28;102154;-41
2022/10/20 04:51:07;;;;;;;;;9.75;9.25;;;;;17.02;54.69;99464.34;4987250;28;104210;-41
2022/10/20 04:53:34;;;;;;;;;12.50;10.00;;;;;17.02;53.97;99474.47;4976815;28;102383;-41
2022/10/20 04:56:01;;;;;;;;;13.50;12.50;;;;;17.01;54.58;99475.50;4987052;27;102171;-41
2022/10/20 04:58:28;;;;;;;;;12.50;10.50;;;;;17.00;54.30;99479.31;4985609;28;102876;-42
2022/10/20 05:01:08;;;;;;;;;13.50;12.75;;;;;17.00;54.40;99473.84;4988834;27;104030;-42
2022/10/20 05:03:35;;;;;;;;;12.00;12.00;;;;;16.99;54.78;99483.09;4986879;28;102460;-41
2022/10/20 05:06:24;;;;;;;;;13.50;10.25;;;;;16.98;53.82;99482.25;4989414;28;103129;-42
2022/10/20 05:08:53;;;;;;;;;13.00;13.00;;;;;16.97;54.30;99485.22;4978324;28;102374;-41
2022/10/20 05:11:20;;;;;;;;;12.00;11.25;;;;;16.97;54.70;99485.22;4984877;28;112236;-42
2022/10/20 05:13:47;;;;;;;;;15.75;12.00;;;;;16.95;55.28;99486.25;4977330;28;102459;-41
2022/10/20 05:16:16;;;;;;;;;12.75;12.00;;;;;16.97;54.75;99479.75;4976561;28;102180;-42
2022/10/20 05:18:43;;;;;;;;;12.25;11.50;;;;;16.97;54.65;99486.06;4984836;28;102471;-41
2022/10/20 05:21:12;;;;;;;;;16.25;14.50;;;;;16.97;54.45;99479.75;4972593;28;104095;-41
2022/10/20 05:23:39;;;;;;;;;12.00;12.00;;;;;16.94;54.32;99479.13;4992344;27;103525;-42
2022/10/20 05:26:08;;;;;;;;;5.25;4.00;;;;;16.95;54.61;99489.00;4985576;28;102477;-41
2022/10/20 05:28:35;;;;;;;;;12.25;10.75;;;;;16.95;54.16;99482.69;4973070;28;102651;-41
2022/10/20 05:31:03;;;;;;;;;13.00;12.00;;;;;16.94;54.03;99486.47;4976054;28;103471;-42
2022/10/20 05:33:30;;;;;;;;;9.50;9.25;;;;;16.93;54.38;99479.38;4975736;28;102108;-42
2022/10/20 05:35:58;;;;;;;;;12.00;10.25;;;;;16.93;53.77;99488.38;4982084;28;102327;-41
2022/10/20 05:38:25;;;;;;;;;13.50;11.50;;;;;16.92;53.89;99483.97;4984126;27;104708;-41
2022/10/20 05:40:52;;;;;;;;;12.25;12.00;;;;;16.91;54.71;99498.69;4972207;28;107945;-41
2022/10/20 05:43:19;;;;;;;;;11.75;10.25;;;;;16.91;54.92;99495.13;4979906;27;102523;-41
2022/10/20 05:45:46;;;;;;;;;12.50;11.50;;;;;16.91;54.62;99501.44;4983423;28;102356;-41
2022/10/20 05:48:13;;;;;;;;;15.50;12.50;;;;;16.90;54.52;99501.63;4974258;28;102418;-41
2022/10/20 05:50:40;;;;;;;;;12.25;11.75;;;;;16.90;54.83;99505.22;4989318;28;104216;-42
2022/10/20 05:53:07;;;;;;;;;12.75;12.50;;;;;16.89;54.04;99492.59;4982411;27;102309;-41
2022/10/20 05:55:34;;;;;;;;;13.50;11.25;;;;;16.89;54.20;99511.72;4977737;28;102448;-41
2022/10/20 05:58:01;;;;;;;;;16.75;12.00;;;;;16.89;54.00;99506.25;4979601;28;103062;-42
2022/10/20 06:00:29;;;;;;;;;12.00;11.00;;;;;16.88;53.98;99507.34;4991432;28;104428;-41
2022/10/20 06:02:57;;;;;;;;;14.50;12.75;;;;;16.89;54.70;99503.53;4977533;28;103326;-42
2022/10/20 06:05:24;;;;;;;;;11.50;10.25;;;;;16.88;54.37;99501.88;4974181;28;102352;-41
2022/10/20 06:07:53;;;;;;;;;13.50;12.50;;;;;16.89;54.40;99506.25;4978406;28;102544;-41
2022/10/20 06:10:20;;;;;;;;;16.00;13.00;;;;;16.89;54.97;99505.41;4984413;28;104162;-42
2022/10/20 06:12:46;;;;;;;;;13.00;11.00;;;;;16.88;53.63;99510.06;4988619;28;102421;-41
2022/10/20 06:15:13;;;;;;;;;12.25;10.75;;;;;16.87;54.10;99513.84;4986010;28;102530;-42
2022/10/20 06:17:40;;;;;;;;;15.25;13.50;;;;;16.87;54.86;99513.84;4979334;28;102407;-41
2022/10/20 06:20:08;;;;;;;;;14.50;12.75;;;;;16.86;54.65;99517.63;4972424;28;104047;-41
2022/10/20 06:22:35;;;;;;;;;12.00;11.00;;;;;16.88;54.46;99511.97;4992278;28;101972;-42
2022/10/20 06:25:02;;;;;;;;;12.25;11.50;;;;;16.86;53.58;99514.91;4987991;28;102339;-41
2022/10/20 06:27:29;;;;;;;;;11.50;10.50;;;;;16.86;54.37;99517.63;4979724;28;103055;-42
2022/10/20 06:29:56;;;;;;;;;12.00;12.00;;;;;16.86;54.03;99525.00;4977601;28;103969;-42
2022/10/20 06:32:23;;;;;;;;;14.50;10.25;;;;;16.86;53.87;99522.25;4996504;28;102258;-41
2022/10/20 06:34:50;;;;;;;;;15.25;12.25;;;;;16.85;53.79;99521.41;4980250;28;105973;-42
2022/10/20 06:37:17;;;;;;;;;13.75;12.25;;;;;16.84;54.09;99524.38;4983128;28;102507;-41
2022/10/20 06:39:44;;;;;;;;;14.50;13.50;;;;;16.84;54.10;99514.28;4981456;28;104124;-41
2022/10/20 06:42:11;;;;;;;;;13.00;12.75;;;;;16.84;53.99;99513.47;4980136;28;102347;-41
2022/10/20 06:44:38;;;;;;;;;13.00;12.00;;;;;16.84;54.10;99511.53;4983419;28;102383;-41
2022/10/20 06:47:09;;;;;;;;;13.00;11.00;;;;;16.85;53.75;99515.13;4984860;28;102201;-41
2022/10/20 06:49:36;;;;;;;;;14.25;13.00;;;;;16.85;54.21;99518.69;4980536;28;104200;-41
2022/10/20 06:52:03;;;;;;;;;14.00;12.00;;;;;16.84;53.83;99517.00;4989738;27;102195;-42
2022/10/20 06:54:30;;;;;;;;;12.00;11.00;;;;;16.84;53.42;99521.66;4979794;27;102240;-41
2022/10/20 06:56:57;;;;;;;;;13.50;10.50;;;;;16.84;54.48;99518.94;4974251;28;102420;-41
2022/10/20 06:59:24;;;;;;;;;14.50;12.75;;;;;16.83;53.97;99529.00;4981471;28;104264;-41
2022/10/20 07:01:51;;;;;;;;;12.25;12.00;;;;;16.83;54.74;99525.44;4986217;28;102297;-41
2022/10/20 07:04:18;;;;;;;;;12.00;11.00;;;;;16.83;54.37;99522.72;4985374;28;102255;-41
2022/10/20 07:06:45;;;;;;;;;13.00;12.75;;;;;16.82;54.73;99527.31;4982906;28;102132;-41
2022/10/20 07:09:15;;;;;;;;;12.25;11.50;;;;;16.81;53.96;99525.66;4973506;28;104054;-41
2022/10/20 07:11:42;;;;;;;;;14.00;13.00;;;;;16.82;53.66;99523.75;4982142;28;102162;-41
2022/10/20 07:14:11;;;;;;;;;13.00;11.75;;;;;16.82;53.77;99530.06;4974726;28;102004;-42
2022/10/20 07:16:38;;;;;;;;;14.50;13.25;;;;;16.81;53.61;99522.91;4990319;27;102247;-41
2022/10/20 07:19:05;;;;;;;;;7.75;6.00;;;;;16.81;54.23;99525.66;4979388;28;104073;-41
2022/10/20 07:21:32;;;;;;;;;12.50;11.00;;;;;16.81;54.27;99522.06;4979980;28;102361;-42
2022/10/20 07:24:03;;;;;;;;;7.50;6.50;;;;;16.80;53.90;99518.50;4979329;28;102493;-42
2022/10/20 07:26:32;;;;;;;;;13.00;12.00;;;;;16.80;54.11;99518.50;4974395;28;102360;-42
2022/10/20 07:29:00;;;;;;;;;13.75;12.00;;;;;16.82;53.42;99521.03;4978350;28;104192;-42
2022/10/20 07:31:35;;;;;;;;;14.75;12.25;;;;;16.82;53.91;99521.03;4976726;28;102426;-41
2022/10/20 07:34:02;;;;;;;;;12.50;11.50;;;;;16.82;53.44;99534.69;4987084;28;102305;-41
2022/10/20 07:36:49;;;;;;;;;11.75;11.75;;;;;16.83;53.90;99523.53;4971379;28;102299;-41
2022/10/20 07:39:16;;;;;;;;;11.25;11.25;;;;;16.82;53.97;99523.75;4993371;28;104022;-41
2022/10/20 07:41:46;;;;;;;;;17.00;13.25;;;;;16.82;53.93;99524.59;4979491;28;102572;-41
2022/10/20 07:44:13;;;;;;;;;11.75;11.75;;;;;16.84;53.60;99527.13;4975205;28;102313;-41
2022/10/20 07:46:40;;;;;;;;;12.25;11.75;;;;;16.83;54.27;99528.16;4973552;28;102427;-41
2022/10/20 07:49:07;;;;;;;;;12.25;11.25;;;;;16.82;53.65;99532.78;4983086;27;104086;-41
2022/10/20 07:51:54;;;;;;;;;13.50;11.25;;;;;16.83;54.45;99533.63;4966416;28;102622;-41
2022/10/20 07:54:21;;;;;;;;;12.75;11.00;;;;;16.83;53.81;99539.09;5004290;27;102378;-41
2022/10/20 07:56:48;;;;;;;;;13.75;11.75;;;;;16.82;53.97;99543.72;4988612;28;102665;-41
2022/10/20 07:59:15;;;;;;;;;10.25;9.25;;;;;16.83;53.92;99539.09;4983010;28;104233;-41
2022/10/20 08:01:42;;;;;;;;;11.50;11.00;;;;;16.83;53.65;99530.91;4988830;28;102420;-42
2022/10/20 08:04:10;;;;;;;;;14.25;11.50;;;;;16.83;54.00;99531.75;4979988;28;102204;-41
2022/10/20 08:06:37;;;;;;;;;13.00;12.00;;;;;16.83;53.58;99528.16;4983286;28;102435;-42
2022/10/20 08:09:05;;;;;;;;;13.25;11.00;;;;;16.83;54.02;99523.53;4988571;28;104070;-42
2022/10/20 08:11:32;;;;;;;;;12.00;12.00;;;;;16.84;54.36;99521.66;4979642;28;102465;-42
2022/10/20 08:13:59;;;;;;;;;10.00;9.75;;;;;16.84;53.35;99517.00;4977929;28;102251;-42
2022/10/20 08:16:26;;;;;;;;;13.00;12.25;;;;;16.85;53.77;99515.94;4984717;27;102425;-42
2022/10/20 08:19:00;;;;;;;;;13.25;11.00;;;;;16.86;53.60;99516.78;4982344;28;108951;-42
2022/10/20 08:21:44;;;;;;;;;11.75;11.25;;;;;16.86;53.35;99511.31;4982626;28;103039;-42
2022/10/20 08:24:10;;;;;;;;;13.00;11.25;;;;;16.87;53.67;99510.28;4991018;28;102324;-41
2022/10/20 08:26:37;;;;;;;;;13.00;12.50;;;;;16.86;53.26;99511.31;4988242;28;102480;-41
2022/10/20 08:29:05;;;;;;;;;14.25;12.00;;;;;16.87;53.15;99508.38;4976295;28;103976;-41
2022/10/20 08:31:32;;;;;;;;;12.00;12.00;;;;;16.86;53.90;99517.63;4984474;28;102297;-41
2022/10/20 08:33:59;;;;;;;;;12.00;11.00;;;;;16.88;53.54;99521.00;4982411;28;102267;-41
2022/10/20 08:36:29;;;;;;;;;12.00;10.50;;;;;16.87;53.41;99521.22;4996371;28;102172;-41
2022/10/20 08:38:58;;;;;;;;;13.50;11.75;;;;;16.87;54.26;99513.84;4978197;28;108874;-41
2022/10/20 08:41:33;;;;;;;;;12.75;11.00;;;;;16.88;53.30;99506.50;4966820;28;102662;-41
2022/10/20 08:44:31;;;;;;;;;10.75;10.75;;;;;16.86;53.19;99503.97;4983877;27;102327;-41
2022/10/20 08:47:03;;;;;;;;;12.75;11.25;;;;;16.88;54.05;99507.34;4989819;28;102216;-41
2022/10/20 08:49:32;;;;;;;;;11.00;10.75;;;;;16.87;53.46;99502.09;4984087;27;104076;-41
2022/10/20 08:51:59;;;;;;;;;8.75;8.50;;;;;16.86;53.37;99501.25;4984001;27;102158;-41
2022/10/20 08:54:26;;;;;;;;;9.25;9.00;;;;;16.88;54.05;99498.31;4994350;28;102390;-41
2022/10/20 08:56:53;;;;;;;;;12.50;10.25;;;;;16.89;54.27;99492.59;4976405;28;102323;-42
2022/10/20 08:59:28;;;;;;;;;9.50;8.75;;;;;16.90;53.64;99497.00;4986577;28;103950;-41
2022/10/20 09:01:56;;;;;;;;;10.00;9.75;;;;;16.91;53.05;99495.97;4989427;28;102098;-42
2022/10/20 09:04:34;;;;;;;;;10.00;9.00;;;;;16.92;53.90;99491.34;4982219;28;102246;-42
2022/10/20 09:07:04;;;;;;;;;9.00;9.00;;;;;16.92;53.17;99486.72;4963744;28;102513;-41
2022/10/20 09:09:31;;;;;;;;;10.25;9.75;;;;;16.93;53.52;99488.38;4976907;28;103978;-42
2022/10/20 09:12:05;;;;;;;;;11.67;10.33;;;;;16.93;53.70;99488.38;4987897;28;102238;-42
2022/10/20 09:14:34;;;;;;;;;9.00;8.25;;;;;16.94;52.98;99487.31;4978512;28;102501;-42
2022/10/20 09:17:01;;;;;;;;;10.25;9.50;;;;;16.94;52.84;99481.84;4980451;28;102579;-42
2022/10/20 09:19:28;;;;;;;;;10.00;10.00;;;;;16.95;53.06;99483.53;4970708;28;104126;-42
2022/10/20 09:22:00;;;;;;;;;7.00;6.75;;;;;16.95;54.09;99478.06;4978627;28;102367;-41
2022/10/20 09:24:28;;;;;;;;;9.75;8.25;;;;;16.95;52.75;99480.81;4978505;28;102328;-41
2022/10/20 09:26:56;;;;;;;;;10.00;9.50;;;;;16.95;53.95;99472.59;4969675;28;102239;-41
2022/10/20 09:29:36;;;;;;;;;11.75;8.75;;;;;16.97;53.70;99479.75;4980656;27;108950;-42
2022/10/20 09:32:16;;;;;;;;;9.75;9.00;;;;;16.96;53.52;99473.44;4970933;28;102338;-42
2022/10/20 09:35:37;;;;;;;;;8.00;8.00;;;;;16.95;53.56;99477.22;4987759;27;102447;-42
2022/10/20 09:38:28;;;;;;;;;10.75;9.00;;;;;16.95;54.02;99478.06;4976906;28;102364;-42
2022/10/20 09:41:10;;;;;;;;;10.00;9.75;;;;;16.98;53.24;99484.97;4977420;28;109087;-42
2022/10/20 09:43:46;;;;;;;;;10.50;9.00;;;;;16.98;53.19;99484.13;4959538;28;104813;-41
2022/10/20 09:46:16;;;;;;;;;10.00;9.00;;;;;16.98;53.26;99474.03;4963693;28;102549;-41
2022/10/20 09:48:47;;;;;;;;;7.50;6.75;;;;;16.99;53.44;99477.63;4994131;27;102429;-42
2022/10/20 09:51:54;;;;;;;;;10.00;10.00;;;;;16.99;52.98;99466.69;4976063;28;104089;-41
2022/10/20 09:54:23;;;;;;;;;8.50;7.75;;;;;17.00;53.41;99461.00;4972144;28;102644;-42
2022/10/20 09:56:51;;;;;;;;;7.00;6.50;;;;;16.99;53.11;99467.53;4970449;28;102541;-42
2022/10/20 09:59:25;;;;;;;;;8.00;8.00;;;;;16.99;53.15;99469.41;4986052;28;104588;-42
2022/10/20 10:02:00;;;;;;;;;9.25;9.00;;;;;17.00;53.18;99471.09;4972554;28;104233;-42
2022/10/20 10:04:34;;;;;;;;;9.75;8.75;;;;;17.00;53.90;99462.91;4974126;28;102304;-42
2022/10/20 10:07:02;;;;;;;;;6.00;6.00;;;;;16.99;53.51;99459.34;4976723;28;102291;-42
2022/10/20 10:09:33;;;;;;;;;8.50;8.50;;;;;16.98;52.87;99460.38;4991002;28;102145;-42
2022/10/20 10:12:22;;;;;;;;;8.00;7.75;;;;;16.99;53.16;99458.50;4972781;28;104210;-42
2022/10/20 10:15:00;;;;;;;;;8.33;8.00;;;;;17.00;53.24;99460.16;4976614;28;102181;-41
2022/10/20 10:17:31;;;;;;;;;9.00;8.00;;;;;17.00;53.84;99457.44;4983010;27;102550;-42
2022/10/20 10:19:59;;;;;;;;;7.75;7.75;;;;;17.01;52.95;99456.38;4969053;28;110438;-42
2022/10/20 10:22:26;;;;;;;;;7.75;7.50;;;;;17.02;52.98;99455.34;4984115;27;108748;-42
2022/10/20 10:24:53;;;;;;;;;7.00;7.00;;;;;17.03;53.01;99455.09;4969582;28;102604;-42
2022/10/20 10:27:31;;;;;;;;;8.00;8.00;;;;;17.04;53.38;99453.19;4964818;28;102088;-42
2022/10/20 10:30:26;;;;;;;;;8.00;6.75;;;;;17.07;53.24;99459.06;4956984;28;102827;-42
2022/10/20 10:32:53;;;;;;;;;7.67;7.67;;;;;17.08;53.16;99448.97;4970312;28;104225;-42
2022/10/20 10:35:37;;;;;;;;;10.25;9.50;;;;;17.10;53.94;99446.84;4982165;27;102493;-41
2022/10/20 10:38:04;;;;;;;;;8.67;7.67;;;;;17.10;53.36;99435.94;4960083;28;102440;-42
2022/10/20 10:40:51;;;;;;;;;7.00;6.67;;;;;17.13;52.96;99440.94;4983294;28;102629;-42
2022/10/20 10:43:30;;;;;;;;;7.67;7.00;;;;;17.15;53.07;99442.41;4984794;28;104236;-41
2022/10/20 10:46:07;;;;;;;;;7.00;7.00;;;;;17.17;53.18;99420.31;4982581;28;102223;-42
2022/10/20 10:48:44;;;;;;;;;9.00;7.00;;;;;17.21;53.20;99424.25;4969223;28;102562;-42
2022/10/20 10:51:40;;;;;;;;;6.75;6.00;;;;;17.24;52.40;99430.13;4984690;28;102178;-41
2022/10/20 10:54:23;;;;;;;;;8.00;7.67;;;;;17.26;53.27;99425.25;4973257;28;108849;-42
2022/10/20 10:56:53;;;;;;;;;9.33;8.00;;;;;17.27;53.17;99431.56;4987644;28;102192;-42
2022/10/20 10:59:30;;;;;;;;;7.00;7.00;;;;;17.29;52.75;99424.00;4970583;28;102336;-42
2022/10/20 11:02:29;;;;;;;;;7.00;6.00;;;;;17.31;52.80;99427.31;4983328;28;102377;-42
2022/10/20 11:05:19;;;;;;;;;7.00;6.00;;;;;17.31;53.22;99414.50;4964168;28;109099;-42
2022/10/20 11:07:55;;;;;;;;;4.00;4.00;;;;;17.34;53.22;99415.94;4978184;28;102305;-42
2022/10/20 11:10:44;;;;;;;;;11.00;9.00;;;;;17.35;52.36;99412.16;4975224;28;102457;-42
2022/10/20 11:13:34;;;;;;;;;7.00;6.00;;;;;17.37;52.79;99410.03;4960966;28;102426;-42
2022/10/20 11:16:11;;;;;;;;;7.33;6.67;;;;;17.37;52.97;99408.16;4975153;28;108751;-42
2022/10/20 11:19:02;;;;;;;;;8.00;6.00;;;;;17.40;52.62;99409.56;4977331;28;104830;-42
2022/10/20 11:21:48;;;;;;;;;7.25;7.25;;;;;17.42;52.74;99399.25;4981565;28;102219;-42
2022/10/20 11:24:38;;;;;;;;;5.00;5.00;;;;;17.44;52.50;99399.84;4978889;28;102431;-42
2022/10/20 11:27:12;;;;;;;;;7.00;7.00;;;;;17.44;52.93;99394.38;4957902;28;108615;-41
2022/10/20 11:29:51;;;;;;;;;5.00;5.00;;;;;17.47;52.32;99388.47;4955702;28;102479;-42
2022/10/20 11:32:27;;;;;;;;;6.00;6.00;;;;;17.48;52.72;99381.94;4961487;28;103272;-42
2022/10/20 11:35:15;;;;;;;;;7.00;6.67;;;;;17.49;52.19;99378.16;4971279;28;102385;-42